首页
METAR-TAF:

METAR-TAF

机场 :

金奈国际机场

金奈, 印度

纬度: 13-00N, 经度: 080-11E, 海拔: 10米

当前天气观测

该预报发布于22分钟前的16:30 UTC
风速6节,风向东转东北
温度 26°C
湿度 89%
气压 1013 hPa
能見度: 3000
散云层高于1800英尺
少量云层高于2500英尺, 积雨云.
多云层高于8000英尺
轻雾

METAR: VOMM 201630Z 06006KT 3000 BR SCT018 FEW025CB BKN080 26/24 Q1013 NOSIG

时间: 22:22 (16:52 UTC)

预报

该预报发布于5小时和52分钟前的11:00 UTC
预报有效从20日的 12点(UTC)到 21日的 18点(UTC)
风速5节,风向东北
能見度: 5000
散云层高于1800英尺
多云层高于10000英尺
轻雾
短暂存在
从 20日的 12点(UTC)到 20日的 18点(UTC)
能見度: 4000
散云层高于1500英尺
多云层高于8000英尺
成为
从 20日的 21点(UTC)到 20日的 22点(UTC)
风速2节,风向多变
能見度: 3000
短暂存在
从 20日的 21点(UTC)到 21日的 03点(UTC)
能見度: 4000
散云层高于1500英尺
多云层高于8000英尺
成为
从 21日的 00点(UTC)到 21日的 01点(UTC)
能見度: 1500
轻雾
成为
从 21日的 03点(UTC)到 21日的 04点(UTC)
能見度: 3000
轻雾
成为
从 21日的 05点(UTC)到 21日的 06点(UTC)
风速5节,风向东北
能見度: 6000

TAF: VOMM 201100Z 2012/2118 05005KT 5000 BR SCT018 BKN100 TEMPO 2012/2018 4000 -TSRA/RA SCT015 FEW025TCU/CB BKN080 BECMG 2021/2022 VRB02KT 3000 -RA/BR TEMPO 2021/2103 4000 -TSRA/RA SCT015 FEW025TCU/CB BKN080 BECMG 2100/2101 1500 BR BECMG 2103/2104 3000 BR BECMG 2105/2106 05005KT 6000

超过4000个机场的气象观测和天气预报(METAR&TAF报告)。

可查询的气象台以黄色和红色小点在地图上表示。

将鼠标移到小点上方,可查看气象台名称。

然后点击查看天气观测和预报。

如需切换地图:点击带黑十字的绿色按钮放大地图;点击带横线的绿色按钮缩小地图;或者点击绿色箭头查看邻近地区的地图。


METAR-TAF: